Aullville, Missouri
Current Conditions -  °F | °C
As of 2:35 AM on Thursday 23 Oct 2014 (Local Time) from KRCM Reporting Station
Overcast Overcast  
Wind Chill: 13°   Ceiling: 7000
Heat Index: 13°   Visibility: 10mi
Dew Point:   Wind: 7mph
Humidity: 72%   Direction: 150°SSE
Pressure: 30.13"   Gusts: NA
Location:  39.0541°N, 93.6618°W
Report Text: KRCM 230735Z AUTO 15006KT 10SM OVC070 13/08 A3013 RMK AO2
Loading
Personal Weather Stations






























Interactive Weather Map New forecast layout! Learn more

10-Day Weather Forecast

Advertisements
Track Severe Weather on mobile